createdAt,value
2018-12-27T00:05:14.768Z,19.50
2018-12-27T00:08:02.482Z,20.70
2018-12-27T00:10:50.284Z,21.27
2018-12-27T00:13:37.991Z,18.23
2018-12-27T00:16:25.738Z,24.83
2018-12-27T00:21:28.344Z,18.47
2018-12-27T00:24:16.029Z,20.53
2018-12-27T00:27:03.704Z,24.17
2018-12-27T00:32:06.396Z,27.10
2018-12-27T00:34:54.239Z,29.13
2018-12-27T00:37:42.211Z,23.47
2018-12-27T00:40:31.817Z,27.47
2018-12-27T00:43:19.579Z,15.50
2018-12-27T00:48:22.747Z,23.40
2018-12-27T00:50:51.437Z,23.60
2018-12-27T00:53:20.061Z,16.50
2018-12-27T00:55:48.684Z,16.70
2018-12-27T00:58:17.357Z,17.57
2018-12-27T01:00:45.974Z,19.27
2018-12-27T01:03:33.815Z,15.47
2018-12-27T01:06:02.508Z,20.37
2018-12-27T01:08:31.172Z,20.10
2018-12-27T01:11:19.057Z,26.50
2018-12-27T01:13:47.776Z,20.83
2018-12-27T01:16:16.416Z,21.67
2018-12-27T01:18:45.035Z,18.30
2018-12-27T01:21:13.692Z,24.30
2018-12-27T01:23:42.312Z,17.63
2018-12-27T01:26:10.975Z,32.37
2018-12-27T01:28:39.591Z,28.90
2018-12-27T01:31:08.218Z,20.47
2018-12-27T01:33:56.062Z,18.97
2018-12-27T01:36:24.685Z,14.53
2018-12-27T01:41:47.048Z,15.10
2018-12-27T01:52:17.821Z,10.77
2018-12-27T01:57:21.051Z,20.30
2018-12-27T01:59:49.737Z,12.53
2018-12-27T02:02:18.334Z,11.30
2018-12-27T02:08:00.049Z,14.20
2018-12-27T02:13:03.214Z,12.20
2018-12-27T02:18:06.065Z,13.83
2018-12-27T02:20:34.700Z,11.80
2018-12-27T02:23:22.462Z,11.57
2018-12-27T02:25:51.079Z,11.43
2018-12-27T02:28:38.921Z,12.07
2018-12-27T02:31:07.538Z,12.37
2018-12-27T02:33:36.194Z,11.10
2018-12-27T02:38:52.454Z,15.50
2018-12-27T02:41:40.335Z,13.30
2018-12-27T02:44:08.986Z,10.23
2018-12-27T02:46:56.826Z,19.37
2018-12-27T02:49:25.471Z,11.73
2018-12-27T02:51:54.093Z,12.60
2018-12-27T02:54:22.711Z,12.20
2018-12-27T02:56:51.368Z,11.07
2018-12-27T02:59:19.983Z,11.43
2018-12-27T03:01:48.651Z,10.57
2018-12-27T03:04:36.450Z,17.30
2018-12-27T03:07:05.125Z,13.70
2018-12-27T03:09:33.743Z,16.27
2018-12-27T03:12:02.360Z,18.90
2018-12-27T03:14:31.009Z,12.03
2018-12-27T03:16:59.623Z,16.73
2018-12-27T03:19:28.274Z,13.77
2018-12-27T03:21:56.895Z,13.20
2018-12-27T03:24:25.557Z,13.80
2018-12-27T03:27:13.441Z,10.90
2018-12-27T03:29:42.158Z,16.30
2018-12-27T03:32:10.767Z,18.03
2018-12-27T03:34:39.376Z,12.60
2018-12-27T03:37:08.057Z,19.17
2018-12-27T03:39:36.678Z,17.60
2018-12-27T03:42:05.328Z,18.33
2018-12-27T03:44:33.966Z,18.33
2018-12-27T03:47:02.626Z,22.37
2018-12-27T03:49:31.238Z,14.57
2018-12-27T03:54:34.407Z,16.30
2018-12-27T03:59:37.863Z,16.50
2018-12-27T04:02:06.506Z,15.53
2018-12-27T04:20:18.051Z,25.10
2018-12-27T04:23:05.808Z,21.00
2018-12-27T04:25:54.112Z,14.67
2018-12-27T04:31:36.807Z,27.40
2018-12-27T04:34:45.297Z,18.43
2018-12-27T04:37:33.106Z,19.20
2018-12-27T04:40:21.065Z,19.03
2018-12-27T04:42:49.687Z,17.63
2018-12-27T04:45:37.441Z,24.10
2018-12-27T04:48:05.936Z,16.87
2018-12-27T04:50:53.796Z,19.00
2018-12-27T04:53:41.614Z,16.83
2018-12-27T04:59:04.020Z,22.33
2018-12-27T05:01:51.865Z,16.60
2018-12-27T05:04:20.448Z,23.43
2018-12-27T05:10:01.389Z,21.60
2018-12-27T05:12:49.080Z,23.97
2018-12-27T05:15:36.937Z,18.03
2018-12-27T05:18:05.463Z,25.73
2018-12-27T05:20:53.196Z,21.63
2018-12-27T05:23:21.739Z,26.40
2018-12-27T05:25:50.233Z,25.40
2018-12-27T05:28:18.810Z,19.67
2018-12-27T05:31:06.678Z,23.87
2018-12-27T05:33:35.164Z,24.10
2018-12-27T05:36:23.043Z,16.77
2018-12-27T05:38:51.535Z,26.50
2018-12-27T05:41:20.062Z,18.90
2018-12-27T05:44:07.808Z,23.03
2018-12-27T05:46:36.312Z,27.37
2018-12-27T05:49:04.805Z,27.13
2018-12-27T05:54:46.815Z,32.97
2018-12-27T05:57:16.559Z,30.30
2018-12-27T05:59:45.037Z,34.87
2018-12-27T06:05:26.028Z,29.13
2018-12-27T06:08:13.877Z,24.93
2018-12-27T06:10:42.368Z,28.17
2018-12-27T06:13:30.292Z,30.23
2018-12-27T06:16:18.045Z,27.07
2018-12-27T06:18:46.636Z,17.87
2018-12-27T06:21:15.132Z,19.47
2018-12-27T06:24:02.900Z,21.43
2018-12-27T06:29:18.875Z,24.17
2018-12-27T06:32:06.486Z,24.40
2018-12-27T06:34:41.391Z,30.83
2018-12-27T06:37:24.651Z,24.00
2018-12-27T06:42:27.475Z,24.10
2018-12-27T06:48:11.501Z,25.97
2018-12-27T06:50:40.002Z,27.97
2018-12-27T06:53:08.537Z,28.13
2018-12-27T06:55:56.213Z,26.87
2018-12-27T06:58:43.942Z,23.43
2018-12-27T07:04:38.664Z,21.03
2018-12-27T07:10:26.584Z,21.33
2018-12-27T07:12:55.094Z,19.60
2018-12-27T07:15:23.584Z,20.13
2018-12-27T07:18:11.301Z,22.07
2018-12-27T07:20:39.792Z,27.17
2018-12-27T07:23:08.332Z,27.93
2018-12-27T07:25:36.832Z,24.37
2018-12-27T07:30:59.317Z,31.10
2018-12-27T07:36:20.805Z,25.77
2018-12-27T07:39:08.576Z,23.83
2018-12-27T07:41:37.069Z,24.80
2018-12-27T07:47:18.626Z,23.03
2018-12-27T07:52:41.149Z,26.80
2018-12-27T07:55:29.027Z,22.07
2018-12-27T07:58:16.833Z,24.80
2018-12-27T08:01:04.698Z,26.53
2018-12-27T08:03:33.193Z,21.07
2018-12-27T08:06:20.995Z,25.47
2018-12-27T08:08:49.497Z,21.93
2018-12-27T08:14:30.317Z,25.47
2018-12-27T08:16:58.851Z,18.20
2018-12-27T08:19:46.767Z,27.27
2018-12-27T08:22:34.465Z,46.73
2018-12-27T08:25:03.032Z,32.63
2018-12-27T08:27:31.525Z,26.80
2018-12-27T08:30:19.457Z,32.37
2018-12-27T08:32:47.952Z,32.33
2018-12-27T08:35:16.476Z,32.43
2018-12-27T08:40:53.600Z,44.83
2018-12-27T08:46:37.068Z,33.43
2018-12-27T08:49:05.569Z,49.97
2018-12-27T08:51:34.200Z,32.30
2018-12-27T08:54:22.035Z,32.37
2018-12-27T08:57:09.819Z,31.53
2018-12-27T08:59:38.311Z,27.00
2018-12-27T09:02:06.838Z,27.73
2018-12-27T09:04:54.654Z,30.60
2018-12-27T09:07:23.192Z,32.20
2018-12-27T09:10:11.001Z,22.03
2018-12-27T09:12:58.864Z,30.60
2018-12-27T09:15:27.360Z,21.40
2018-12-27T09:17:55.873Z,20.40
2018-12-27T09:20:43.751Z,29.50
2018-12-27T09:26:24.600Z,30.23
2018-12-27T09:29:12.531Z,27.83
2018-12-27T09:31:41.024Z,29.13
2018-12-27T09:34:28.815Z,28.53
2018-12-27T09:37:16.523Z,32.77
2018-12-27T09:39:45.057Z,34.37
2018-12-27T09:42:32.887Z,23.83
2018-12-27T09:45:01.444Z,20.07
2018-12-27T09:47:49.204Z,25.50
2018-12-27T09:50:37.045Z,19.63
2018-12-27T09:53:24.726Z,28.67
2018-12-27T09:59:06.041Z,27.50
2018-12-27T10:01:53.806Z,29.70
2018-12-27T10:04:22.296Z,30.20
2018-12-27T10:09:43.610Z,31.27
2018-12-27T10:12:12.135Z,30.73
2018-12-27T10:14:40.629Z,37.83
2018-12-27T10:17:28.268Z,38.87
2018-12-27T10:19:56.760Z,34.97
2018-12-27T10:22:44.645Z,31.93
2018-12-27T10:25:13.141Z,38.33
2018-12-27T10:28:01.052Z,33.57
2018-12-27T10:30:48.752Z,34.17
2018-12-27T10:33:36.544Z,34.37
2018-12-27T10:36:24.167Z,33.67
2018-12-27T10:39:32.605Z,31.83
2018-12-27T10:42:01.108Z,36.30
2018-12-27T10:47:41.674Z,45.07
2018-12-27T10:50:50.137Z,33.40
2018-12-27T10:53:18.627Z,26.47
2018-12-27T10:56:06.500Z,26.97
2018-12-27T10:58:54.245Z,34.77
2018-12-27T11:01:41.895Z,47.37
2018-12-27T11:04:10.388Z,41.00
2018-12-27T11:06:58.098Z,33.60
2018-12-27T11:09:45.705Z,46.80
2018-12-27T11:12:14.253Z,37.30
2018-12-27T11:14:42.751Z,40.93
2018-12-27T11:17:11.250Z,31.83
2018-12-27T11:19:59.155Z,22.80
2018-12-27T11:22:27.646Z,23.63
2018-12-27T11:27:54.879Z,33.70
2018-12-27T11:30:42.594Z,27.80
2018-12-27T11:33:11.078Z,31.03
2018-12-27T11:35:39.561Z,27.30
2018-12-27T11:38:08.158Z,29.33
2018-12-27T11:43:45.177Z,28.80
2018-12-27T11:46:32.984Z,33.50
2018-12-27T11:51:54.972Z,32.33
2018-12-27T11:54:42.840Z,41.40
2018-12-27T11:57:11.336Z,28.67
2018-12-27T11:59:39.851Z,42.27
2018-12-27T12:02:31.050Z,40.93
2018-12-27T12:04:57.833Z,38.67
2018-12-27T12:07:45.760Z,43.87
2018-12-27T12:10:14.247Z,43.20
2018-12-27T12:12:42.747Z,37.10
2018-12-27T12:15:30.605Z,35.73
2018-12-27T12:17:59.108Z,36.07
2018-12-27T12:20:46.870Z,42.67
2018-12-27T12:23:15.359Z,46.13
2018-12-27T12:26:03.099Z,38.53
2018-12-27T12:31:38.363Z,41.50
2018-12-27T12:34:26.053Z,47.20
2018-12-27T12:37:34.492Z,43.93
2018-12-27T12:40:22.227Z,50.67
2018-12-27T12:43:09.991Z,55.83
2018-12-27T12:45:57.795Z,41.20
2018-12-27T12:51:20.218Z,46.53
2018-12-27T12:53:49.257Z,41.40
2018-12-27T12:56:18.047Z,43.37
2018-12-27T12:58:47.500Z,42.80
2018-12-27T13:01:16.201Z,45.97
2018-12-27T13:03:45.118Z,44.20
2018-12-27T13:06:17.918Z,38.30
2018-12-27T13:08:44.402Z,39.37
2018-12-27T13:11:13.349Z,41.17
2018-12-27T13:13:42.134Z,34.07
2018-12-27T13:16:11.136Z,42.33
2018-12-27T13:18:47.095Z,49.43
2018-12-27T13:21:10.289Z,36.77
2018-12-27T13:23:40.055Z,44.37
2018-12-27T13:26:08.689Z,44.47
2018-12-27T13:28:37.287Z,46.70
2018-12-27T13:31:05.768Z,39.37
2018-12-27T13:33:34.673Z,38.97
2018-12-27T13:36:03.635Z,40.60
2018-12-27T13:38:32.433Z,49.10
2018-12-27T13:41:00.922Z,52.00
2018-12-27T13:43:29.920Z,48.20
2018-12-27T13:45:58.921Z,44.47
2018-12-27T13:48:27.789Z,44.33
2018-12-27T13:50:56.951Z,45.00
2018-12-27T13:53:25.771Z,44.27
2018-12-27T13:55:54.395Z,49.23
2018-12-27T13:58:23.216Z,54.40
2018-12-27T14:00:52.082Z,58.13
2018-12-27T14:03:20.574Z,49.20
2018-12-27T14:05:49.423Z,47.23
2018-12-27T14:08:18.899Z,54.70
2018-12-27T14:10:47.916Z,57.57
2018-12-27T14:13:16.864Z,56.00
2018-12-27T14:15:45.805Z,60.20
2018-12-27T14:18:14.457Z,49.07
2018-12-27T14:20:44.486Z,57.57
2018-12-27T14:23:13.284Z,58.27
2018-12-27T14:25:41.777Z,50.43
2018-12-27T14:28:10.611Z,46.77
2018-12-27T14:30:39.313Z,55.17
2018-12-27T14:33:08.116Z,53.57
2018-12-27T14:35:36.642Z,49.13
2018-12-27T14:38:05.201Z,55.83
2018-12-27T14:40:33.725Z,60.00
2018-12-27T14:43:02.394Z,46.93
2018-12-27T14:45:31.375Z,53.20
2018-12-27T14:48:00.188Z,53.90
2018-12-27T14:50:29.131Z,51.07
2018-12-27T14:52:57.687Z,51.43
2018-12-27T14:55:26.708Z,48.43
2018-12-27T14:57:55.505Z,57.47
2018-12-27T15:00:24.140Z,55.40
2018-12-27T15:02:53.032Z,58.17
2018-12-27T15:05:21.664Z,61.83
2018-12-27T15:07:50.511Z,57.57
2018-12-27T15:10:19.064Z,51.20
2018-12-27T15:12:48.031Z,55.20
2018-12-27T15:15:16.649Z,56.27
2018-12-27T15:17:45.209Z,47.30
2018-12-27T15:20:14.109Z,57.23
2018-12-27T15:22:42.951Z,57.20
2018-12-27T15:25:12.150Z,68.37
2018-12-27T15:27:40.969Z,54.03
2018-12-27T15:30:09.836Z,52.47
2018-12-27T15:32:38.773Z,60.07
2018-12-27T15:35:07.629Z,59.40
2018-12-27T15:37:36.700Z,57.17
2018-12-27T15:40:06.045Z,59.80
2018-12-27T15:42:35.018Z,52.93
2018-12-27T15:45:04.105Z,59.87
2018-12-27T15:47:32.595Z,67.13
2018-12-27T15:50:01.219Z,54.60
2018-12-27T15:52:29.776Z,68.43
2018-12-27T15:54:58.598Z,54.30
2018-12-27T15:57:27.641Z,67.03
2018-12-27T15:59:56.513Z,64.23
2018-12-27T16:02:25.427Z,52.43
2018-12-27T16:04:53.989Z,56.67
2018-12-27T16:07:22.804Z,52.40
2018-12-27T16:09:51.715Z,44.40
2018-12-27T16:12:20.258Z,61.33
2018-12-27T16:14:48.905Z,55.63
2018-12-27T16:17:17.382Z,52.37
2018-12-27T16:19:46.371Z,50.27
2018-12-27T16:22:14.943Z,48.50
2018-12-27T16:24:43.641Z,54.30
2018-12-27T16:27:12.542Z,61.77
2018-12-27T16:29:41.105Z,56.07
2018-12-27T16:32:09.951Z,60.70
2018-12-27T16:34:38.750Z,51.20
2018-12-27T16:37:09.180Z,56.70
2018-12-27T16:39:38.349Z,55.03
2018-12-27T16:42:06.916Z,63.60
2018-12-27T16:44:35.852Z,52.17
2018-12-27T16:47:04.500Z,65.10
2018-12-27T16:49:33.572Z,62.20
2018-12-27T16:52:02.506Z,55.30
2018-12-27T16:54:31.453Z,68.07
2018-12-27T16:57:00.054Z,58.20
2018-12-27T16:59:28.686Z,58.43
2018-12-27T17:01:57.711Z,58.47
2018-12-27T17:04:26.589Z,51.57
2018-12-27T17:06:55.470Z,61.27
2018-12-27T17:09:24.065Z,60.70
2018-12-27T17:11:52.937Z,60.87
2018-12-27T17:14:21.893Z,61.60
2018-12-27T17:16:50.743Z,58.40
2018-12-27T17:19:19.303Z,51.63
2018-12-27T17:21:48.299Z,73.53
2018-12-27T17:24:17.107Z,63.47
2018-12-27T17:26:45.981Z,63.20
2018-12-27T17:29:14.548Z,54.00
2018-12-27T17:31:43.552Z,54.67
2018-12-27T17:34:12.399Z,57.40
2018-12-27T17:36:41.243Z,55.77
2018-12-27T17:39:10.253Z,49.63
2018-12-27T17:41:39.206Z,54.77
2018-12-27T17:44:07.696Z,56.37
2018-12-27T17:46:36.693Z,52.70
2018-12-27T17:49:05.567Z,48.30
2018-12-27T17:51:34.406Z,56.20
2018-12-27T17:54:02.909Z,53.30
2018-12-27T17:56:31.948Z,54.10
2018-12-27T17:59:00.787Z,56.50
2018-12-27T18:01:29.592Z,59.27
2018-12-27T18:03:58.805Z,54.70
2018-12-27T18:06:27.394Z,55.20
2018-12-27T18:08:55.923Z,47.83
2018-12-27T18:11:24.514Z,59.30
2018-12-27T18:13:53.309Z,53.87
2018-12-27T18:16:22.127Z,62.67
2018-12-27T18:18:51.070Z,50.63
2018-12-27T18:21:19.640Z,60.80
2018-12-27T18:23:48.477Z,59.07
2018-12-27T18:26:17.281Z,54.17
2018-12-27T18:28:46.406Z,54.43
2018-12-27T18:31:14.909Z,59.80
2018-12-27T18:33:43.473Z,55.63
2018-12-27T18:36:12.142Z,55.57
2018-12-27T18:38:40.947Z,56.37
2018-12-27T18:41:09.611Z,51.73
2018-12-27T18:43:38.101Z,54.77
2018-12-27T18:46:06.659Z,51.37
2018-12-27T18:48:35.572Z,57.50
2018-12-27T18:51:04.146Z,49.30
2018-12-27T18:53:33.051Z,56.67
2018-12-27T18:56:01.865Z,50.83
2018-12-27T18:58:30.753Z,53.63
2018-12-27T19:00:59.346Z,47.13
2018-12-27T19:03:27.835Z,51.80
2018-12-27T19:05:56.800Z,56.67
2018-12-27T19:08:25.359Z,60.50
2018-12-27T19:11:30.076Z,55.80
2018-12-27T19:13:58.874Z,55.20
2018-12-27T19:16:27.674Z,46.37
2018-12-27T19:18:56.274Z,51.00
2018-12-27T19:21:24.777Z,57.93
2018-12-27T19:23:53.639Z,56.47
2018-12-27T19:26:22.492Z,56.43
2018-12-27T19:28:51.377Z,57.07
2018-12-27T19:31:20.343Z,52.23
2018-12-27T19:33:49.250Z,70.70
2018-12-27T19:36:17.814Z,52.17
2018-12-27T19:38:46.342Z,67.03
2018-12-27T19:41:15.145Z,63.67
2018-12-27T19:43:44.048Z,64.50
2018-12-27T19:46:12.682Z,52.07
2018-12-27T19:48:41.298Z,57.90
2018-12-27T19:51:09.962Z,51.60
2018-12-27T19:53:38.931Z,54.13
2018-12-27T19:56:07.795Z,54.77
2018-12-27T19:58:36.686Z,58.77
2018-12-27T20:01:05.697Z,61.00
2018-12-27T20:03:34.314Z,57.57
2018-12-27T20:06:02.920Z,50.17
2018-12-27T20:08:31.518Z,52.13
2018-12-27T20:11:00.297Z,49.80
2018-12-27T20:13:29.353Z,50.60
2018-12-27T20:15:57.986Z,65.77
2018-12-27T20:18:26.757Z,60.77
2018-12-27T20:20:55.797Z,53.17
2018-12-27T20:23:24.920Z,53.83
2018-12-27T20:25:53.720Z,55.87
2018-12-27T20:28:22.589Z,48.90
2018-12-27T20:30:51.703Z,60.17
2018-12-27T20:33:20.807Z,49.13
2018-12-27T20:35:49.568Z,65.03
2018-12-27T20:38:18.323Z,66.33
2018-12-27T20:40:47.107Z,66.37
2018-12-27T20:43:15.848Z,58.17
2018-12-27T20:45:44.721Z,56.07
2018-12-27T20:48:13.835Z,63.10
2018-12-27T20:50:42.938Z,66.83
2018-12-27T20:53:11.709Z,54.43
2018-12-27T20:55:40.773Z,53.90
2018-12-27T20:58:09.578Z,62.33
2018-12-27T21:00:38.312Z,47.47
2018-12-27T21:03:07.382Z,50.00
2018-12-27T21:05:36.463Z,49.80
2018-12-27T21:08:05.647Z,53.80
2018-12-27T21:10:34.737Z,55.87
2018-12-27T21:13:03.752Z,51.87
2018-12-27T21:15:32.700Z,53.97
2018-12-27T21:18:01.765Z,48.77
2018-12-27T21:20:30.619Z,58.93
2018-12-27T21:22:59.626Z,57.67
2018-12-27T21:25:28.578Z,58.70
2018-12-27T21:27:57.594Z,68.53
2018-12-27T21:30:26.819Z,65.63
2018-12-27T21:32:55.921Z,66.10
2018-12-27T21:35:24.999Z,68.20
2018-12-27T21:37:53.900Z,65.63
2018-12-27T21:40:22.633Z,55.17
2018-12-27T21:42:51.620Z,66.00
2018-12-27T21:45:20.352Z,61.80
2018-12-27T21:47:48.955Z,63.63
2018-12-27T21:50:17.826Z,66.87
2018-12-27T21:52:46.393Z,60.57
2018-12-27T21:55:14.912Z,65.20
2018-12-27T21:57:43.716Z,70.23
2018-12-27T22:00:12.829Z,61.70
2018-12-27T22:02:41.334Z,57.07
2018-12-27T22:05:10.234Z,50.70
2018-12-27T22:07:38.840Z,44.87
2018-12-27T22:10:08.291Z,54.57
2018-12-27T22:12:37.059Z,46.43
2018-12-27T22:15:05.868Z,53.47
2018-12-27T22:17:34.894Z,57.87
2018-12-27T22:20:03.491Z,39.70
2018-12-27T22:22:32.561Z,50.57
2018-12-27T22:25:01.634Z,44.83
2018-12-27T22:27:30.333Z,49.90
2018-12-27T22:29:58.816Z,46.73
2018-12-27T22:32:27.652Z,57.57
2018-12-27T22:34:56.181Z,46.27
2018-12-27T22:37:24.776Z,47.90
2018-12-27T22:39:53.362Z,47.97
2018-12-27T22:42:21.974Z,49.70
2018-12-27T22:44:50.500Z,53.77
2018-12-27T22:47:19.297Z,52.23
2018-12-27T22:49:48.013Z,52.30
2018-12-27T22:52:16.902Z,64.10
2018-12-27T22:54:45.859Z,53.53
2018-12-27T22:57:14.768Z,64.60
2018-12-27T22:59:43.783Z,50.40
2018-12-27T23:02:12.773Z,50.10
2018-12-27T23:04:41.662Z,50.47
2018-12-27T23:07:10.607Z,53.37
2018-12-27T23:09:39.488Z,52.20
2018-12-27T23:12:08.118Z,51.20
2018-12-27T23:14:37.092Z,45.60
2018-12-27T23:17:06.191Z,51.67
2018-12-27T23:19:35.199Z,52.20
2018-12-27T23:22:03.757Z,49.50
2018-12-27T23:24:32.574Z,47.37
2018-12-27T23:27:01.092Z,50.43
2018-12-27T23:29:29.657Z,51.47
2018-12-27T23:31:58.187Z,47.13
2018-12-27T23:34:26.993Z,49.10
2018-12-27T23:36:55.771Z,57.50
2018-12-27T23:39:24.680Z,46.10
2018-12-27T23:41:53.487Z,46.03
2018-12-27T23:44:22.413Z,57.50
2018-12-27T23:46:51.055Z,52.13
2018-12-27T23:49:19.613Z,47.47
2018-12-27T23:51:48.528Z,44.23
2018-12-27T23:54:17.097Z,50.53
2018-12-27T23:56:45.687Z,48.10
2018-12-27T23:59:14.604Z,56.17
